sensor_id;sensor_type;location;lat;lon;timestamp;temperature;humidity
37456;DHT22;23316;50.718;7.328;2022-10-16T00:01:28;18.20;61.00
37456;DHT22;23316;50.718;7.328;2022-10-16T00:03:57;18.20;61.00
37456;DHT22;23316;50.718;7.328;2022-10-16T00:06:25;18.10;61.00
37456;DHT22;23316;50.718;7.328;2022-10-16T00:08:52;18.10;61.00
37456;DHT22;23316;50.718;7.328;2022-10-16T00:11:21;18.10;61.00
37456;DHT22;23316;50.718;7.328;2022-10-16T00:13:52;18.10;61.00
37456;DHT22;23316;50.718;7.328;2022-10-16T00:16:21;18.10;61.00
37456;DHT22;23316;50.718;7.328;2022-10-16T00:18:48;18.10;61.00
37456;DHT22;23316;50.718;7.328;2022-10-16T00:21:17;18.10;61.00
37456;DHT22;23316;50.718;7.328;2022-10-16T00:23:45;18.10;60.90
37456;DHT22;23316;50.718;7.328;2022-10-16T00:26:16;18.10;60.90
37456;DHT22;23316;50.718;7.328;2022-10-16T00:28:45;18.10;61.30
37456;DHT22;23316;50.718;7.328;2022-10-16T00:31:14;18.10;60.90
37456;DHT22;23316;50.718;7.328;2022-10-16T00:33:42;18.10;60.90
37456;DHT22;23316;50.718;7.328;2022-10-16T00:36:12;18.10;60.90
37456;DHT22;23316;50.718;7.328;2022-10-16T00:38:39;18.00;60.80
37456;DHT22;23316;50.718;7.328;2022-10-16T00:41:09;18.00;60.80
37456;DHT22;23316;50.718;7.328;2022-10-16T00:43:39;18.00;60.80
37456;DHT22;23316;50.718;7.328;2022-10-16T00:46:15;18.00;60.70
37456;DHT22;23316;50.718;7.328;2022-10-16T00:48:46;18.00;60.70
37456;DHT22;23316;50.718;7.328;2022-10-16T00:51:17;18.00;60.60
37456;DHT22;23316;50.718;7.328;2022-10-16T00:53:46;18.00;60.70
37456;DHT22;23316;50.718;7.328;2022-10-16T00:56:13;17.90;60.60
37456;DHT22;23316;50.718;7.328;2022-10-16T00:58:40;17.90;60.60
37456;DHT22;23316;50.718;7.328;2022-10-16T01:01:08;17.90;60.70
37456;DHT22;23316;50.718;7.328;2022-10-16T01:03:37;17.90;60.70
37456;DHT22;23316;50.718;7.328;2022-10-16T01:06:17;17.90;60.80
37456;DHT22;23316;50.718;7.328;2022-10-16T01:08:53;17.90;60.80
37456;DHT22;23316;50.718;7.328;2022-10-16T01:11:27;17.80;60.80
37456;DHT22;23316;50.718;7.328;2022-10-16T01:13:58;17.90;60.80
37456;DHT22;23316;50.718;7.328;2022-10-16T01:16:32;17.90;60.90
37456;DHT22;23316;50.718;7.328;2022-10-16T01:19:04;17.80;60.90
37456;DHT22;23316;50.718;7.328;2022-10-16T01:21:36;17.80;61.00
37456;DHT22;23316;50.718;7.328;2022-10-16T01:24:09;17.80;60.70
37456;DHT22;23316;50.718;7.328;2022-10-16T01:29:25;17.80;61.00
37456;DHT22;23316;50.718;7.328;2022-10-16T01:31:57;17.70;61.00
37456;DHT22;23316;50.718;7.328;2022-10-16T01:34:31;17.70;61.10
37456;DHT22;23316;50.718;7.328;2022-10-16T01:37:04;17.70;61.20
37456;DHT22;23316;50.718;7.328;2022-10-16T01:39:34;17.80;61.20
37456;DHT22;23316;50.718;7.328;2022-10-16T01:42:06;17.70;61.20
37456;DHT22;23316;50.718;7.328;2022-10-16T01:44:37;17.70;61.20
37456;DHT22;23316;50.718;7.328;2022-10-16T01:47:06;17.70;61.20
37456;DHT22;23316;50.718;7.328;2022-10-16T01:49:36;17.70;61.10
37456;DHT22;23316;50.718;7.328;2022-10-16T01:52:09;17.70;61.20
37456;DHT22;23316;50.718;7.328;2022-10-16T01:54:40;17.70;61.20
37456;DHT22;23316;50.718;7.328;2022-10-16T01:57:10;17.70;61.20
37456;DHT22;23316;50.718;7.328;2022-10-16T01:59:44;17.60;61.20
37456;DHT22;23316;50.718;7.328;2022-10-16T02:02:13;17.60;61.10
37456;DHT22;23316;50.718;7.328;2022-10-16T02:04:43;17.60;61.20
37456;DHT22;23316;50.718;7.328;2022-10-16T02:07:12;17.60;61.30
37456;DHT22;23316;50.718;7.328;2022-10-16T02:09:40;17.60;61.30
37456;DHT22;23316;50.718;7.328;2022-10-16T02:12:11;17.50;61.30
37456;DHT22;23316;50.718;7.328;2022-10-16T02:14:41;17.60;61.50
37456;DHT22;23316;50.718;7.328;2022-10-16T02:17:13;17.60;61.50
37456;DHT22;23316;50.718;7.328;2022-10-16T02:19:45;17.50;61.60
37456;DHT22;23316;50.718;7.328;2022-10-16T02:22:18;17.60;61.80
37456;DHT22;23316;50.718;7.328;2022-10-16T02:24:51;17.50;61.90
37456;DHT22;23316;50.718;7.328;2022-10-16T02:27:25;17.50;61.90
37456;DHT22;23316;50.718;7.328;2022-10-16T02:29:58;17.50;62.00
37456;DHT22;23316;50.718;7.328;2022-10-16T02:32:30;17.60;62.20
37456;DHT22;23316;50.718;7.328;2022-10-16T02:34:59;17.50;62.10
37456;DHT22;23316;50.718;7.328;2022-10-16T02:37:27;17.50;62.10
37456;DHT22;23316;50.718;7.328;2022-10-16T02:39:56;17.50;62.20
37456;DHT22;23316;50.718;7.328;2022-10-16T02:42:28;17.50;62.20
37456;DHT22;23316;50.718;7.328;2022-10-16T02:44:57;17.60;62.30
37456;DHT22;23316;50.718;7.328;2022-10-16T02:47:25;17.50;62.30
37456;DHT22;23316;50.718;7.328;2022-10-16T02:49:52;17.50;62.30
37456;DHT22;23316;50.718;7.328;2022-10-16T02:52:20;17.50;62.30
37456;DHT22;23316;50.718;7.328;2022-10-16T02:54:47;17.50;62.30
37456;DHT22;23316;50.718;7.328;2022-10-16T02:57:14;17.60;62.40
37456;DHT22;23316;50.718;7.328;2022-10-16T02:59:41;17.60;62.40
37456;DHT22;23316;50.718;7.328;2022-10-16T03:02:10;17.50;62.40
37456;DHT22;23316;50.718;7.328;2022-10-16T03:04:38;17.60;62.40
37456;DHT22;23316;50.718;7.328;2022-10-16T03:07:05;17.50;62.30
37456;DHT22;23316;50.718;7.328;2022-10-16T03:09:33;17.60;62.40
37456;DHT22;23316;50.718;7.328;2022-10-16T03:12:00;17.50;62.40
37456;DHT22;23316;50.718;7.328;2022-10-16T03:14:28;17.60;62.40
37456;DHT22;23316;50.718;7.328;2022-10-16T03:16:55;17.60;62.40
37456;DHT22;23316;50.718;7.328;2022-10-16T03:19:24;17.60;62.40
37456;DHT22;23316;50.718;7.328;2022-10-16T03:21:51;17.50;62.30
37456;DHT22;23316;50.718;7.328;2022-10-16T03:24:18;17.50;62.30
37456;DHT22;23316;50.718;7.328;2022-10-16T03:26:45;17.60;62.40
37456;DHT22;23316;50.718;7.328;2022-10-16T03:29:13;17.50;62.30
37456;DHT22;23316;50.718;7.328;2022-10-16T03:31:40;17.50;62.40
37456;DHT22;23316;50.718;7.328;2022-10-16T03:34:07;17.60;62.40
37456;DHT22;23316;50.718;7.328;2022-10-16T03:36:36;17.50;62.40
37456;DHT22;23316;50.718;7.328;2022-10-16T03:39:03;17.60;62.50
37456;DHT22;23316;50.718;7.328;2022-10-16T03:41:30;17.60;62.50
37456;DHT22;23316;50.718;7.328;2022-10-16T03:43:57;17.60;62.60
37456;DHT22;23316;50.718;7.328;2022-10-16T03:46:25;17.60;62.50
37456;DHT22;23316;50.718;7.328;2022-10-16T03:48:52;17.60;62.50
37456;DHT22;23316;50.718;7.328;2022-10-16T03:51:19;17.60;62.40
37456;DHT22;23316;50.718;7.328;2022-10-16T03:53:48;17.60;62.40
37456;DHT22;23316;50.718;7.328;2022-10-16T03:56:15;17.60;62.40
37456;DHT22;23316;50.718;7.328;2022-10-16T03:58:42;17.60;62.40
37456;DHT22;23316;50.718;7.328;2022-10-16T04:01:10;17.60;62.40
37456;DHT22;23316;50.718;7.328;2022-10-16T04:03:37;17.60;62.40
37456;DHT22;23316;50.718;7.328;2022-10-16T04:06:04;17.60;62.40
37456;DHT22;23316;50.718;7.328;2022-10-16T04:08:32;17.60;62.20
37456;DHT22;23316;50.718;7.328;2022-10-16T04:11:02;17.60;62.20
37456;DHT22;23316;50.718;7.328;2022-10-16T04:13:29;17.60;62.10
37456;DHT22;23316;50.718;7.328;2022-10-16T04:15:57;17.60;62.00
37456;DHT22;23316;50.718;7.328;2022-10-16T04:18:24;17.60;61.90
37456;DHT22;23316;50.718;7.328;2022-10-16T04:20:53;17.60;62.10
37456;DHT22;23316;50.718;7.328;2022-10-16T04:23:20;17.60;62.00
37456;DHT22;23316;50.718;7.328;2022-10-16T04:25:48;17.60;62.00
37456;DHT22;23316;50.718;7.328;2022-10-16T04:28:17;17.60;61.90
37456;DHT22;23316;50.718;7.328;2022-10-16T04:30:44;17.60;61.90
37456;DHT22;23316;50.718;7.328;2022-10-16T04:33:11;17.60;61.90
37456;DHT22;23316;50.718;7.328;2022-10-16T04:35:39;17.60;61.90
37456;DHT22;23316;50.718;7.328;2022-10-16T04:38:07;17.60;61.90
37456;DHT22;23316;50.718;7.328;2022-10-16T04:40:34;17.60;61.90
37456;DHT22;23316;50.718;7.328;2022-10-16T04:43:02;17.60;62.00
37456;DHT22;23316;50.718;7.328;2022-10-16T04:45:31;17.70;62.00
37456;DHT22;23316;50.718;7.328;2022-10-16T04:47:59;17.60;61.90
37456;DHT22;23316;50.718;7.328;2022-10-16T04:50:26;17.70;61.90
37456;DHT22;23316;50.718;7.328;2022-10-16T04:52:53;17.70;62.00
37456;DHT22;23316;50.718;7.328;2022-10-16T04:55:21;17.70;62.00
37456;DHT22;23316;50.718;7.328;2022-10-16T04:57:48;17.70;62.40
37456;DHT22;23316;50.718;7.328;2022-10-16T05:00:15;17.70;62.00
37456;DHT22;23316;50.718;7.328;2022-10-16T05:02:44;17.70;62.00
37456;DHT22;23316;50.718;7.328;2022-10-16T05:05:11;17.80;62.10
37456;DHT22;23316;50.718;7.328;2022-10-16T05:07:38;17.70;62.00
37456;DHT22;23316;50.718;7.328;2022-10-16T05:10:06;17.70;62.10
37456;DHT22;23316;50.718;7.328;2022-10-16T05:12:33;17.70;62.10
37456;DHT22;23316;50.718;7.328;2022-10-16T05:15:00;17.70;62.00
37456;DHT22;23316;50.718;7.328;2022-10-16T05:17:28;17.80;62.10
37456;DHT22;23316;50.718;7.328;2022-10-16T05:19:56;17.80;62.10
37456;DHT22;23316;50.718;7.328;2022-10-16T05:22:23;17.80;62.20
37456;DHT22;23316;50.718;7.328;2022-10-16T05:24:50;17.80;62.20
37456;DHT22;23316;50.718;7.328;2022-10-16T05:27:18;17.80;62.20
37456;DHT22;23316;50.718;7.328;2022-10-16T05:29:46;17.80;62.20
37456;DHT22;23316;50.718;7.328;2022-10-16T05:32:15;17.80;62.30
37456;DHT22;23316;50.718;7.328;2022-10-16T05:34:43;17.80;62.30
37456;DHT22;23316;50.718;7.328;2022-10-16T05:37:12;17.80;62.20
37456;DHT22;23316;50.718;7.328;2022-10-16T05:39:39;17.80;62.20
37456;DHT22;23316;50.718;7.328;2022-10-16T05:42:06;17.90;62.20
37456;DHT22;23316;50.718;7.328;2022-10-16T05:44:34;17.90;62.30
37456;DHT22;23316;50.718;7.328;2022-10-16T05:47:01;17.90;62.20
37456;DHT22;23316;50.718;7.328;2022-10-16T05:49:28;17.90;62.20
37456;DHT22;23316;50.718;7.328;2022-10-16T05:51:55;17.90;62.30
37456;DHT22;23316;50.718;7.328;2022-10-16T05:54:24;17.90;62.30
37456;DHT22;23316;50.718;7.328;2022-10-16T05:56:51;17.90;62.40
37456;DHT22;23316;50.718;7.328;2022-10-16T05:59:18;17.90;62.30
37456;DHT22;23316;50.718;7.328;2022-10-16T06:01:46;17.90;62.30
37456;DHT22;23316;50.718;7.328;2022-10-16T06:04:13;17.90;62.30
37456;DHT22;23316;50.718;7.328;2022-10-16T06:06:40;17.90;62.40
37456;DHT22;23316;50.718;7.328;2022-10-16T06:09:08;17.90;62.40
37456;DHT22;23316;50.718;7.328;2022-10-16T06:11:37;17.90;62.50
37456;DHT22;23316;50.718;7.328;2022-10-16T06:14:05;17.90;62.60
37456;DHT22;23316;50.718;7.328;2022-10-16T06:16:33;17.90;62.60
37456;DHT22;23316;50.718;7.328;2022-10-16T06:19:02;17.90;62.70
37456;DHT22;23316;50.718;7.328;2022-10-16T06:21:32;17.90;62.70
37456;DHT22;23316;50.718;7.328;2022-10-16T06:23:59;17.90;62.70
37456;DHT22;23316;50.718;7.328;2022-10-16T06:26:28;18.00;62.90
37456;DHT22;23316;50.718;7.328;2022-10-16T06:28:58;17.90;62.80
37456;DHT22;23316;50.718;7.328;2022-10-16T06:31:26;18.00;63.00
37456;DHT22;23316;50.718;7.328;2022-10-16T06:33:57;18.00;63.00
37456;DHT22;23316;50.718;7.328;2022-10-16T06:36:25;17.90;63.00
37456;DHT22;23316;50.718;7.328;2022-10-16T06:38:52;18.00;63.00
37456;DHT22;23316;50.718;7.328;2022-10-16T06:41:21;18.00;63.00
37456;DHT22;23316;50.718;7.328;2022-10-16T06:43:49;18.00;63.10
37456;DHT22;23316;50.718;7.328;2022-10-16T06:46:20;17.90;63.00
37456;DHT22;23316;50.718;7.328;2022-10-16T06:48:47;18.00;63.20
37456;DHT22;23316;50.718;7.328;2022-10-16T06:51:16;18.00;63.20
37456;DHT22;23316;50.718;7.328;2022-10-16T06:53:48;18.00;63.20
37456;DHT22;23316;50.718;7.328;2022-10-16T06:56:17;18.00;63.20
37456;DHT22;23316;50.718;7.328;2022-10-16T06:58:45;18.00;63.20
37456;DHT22;23316;50.718;7.328;2022-10-16T07:01:14;18.00;63.30
37456;DHT22;23316;50.718;7.328;2022-10-16T07:03:44;18.00;63.30
37456;DHT22;23316;50.718;7.328;2022-10-16T07:06:13;18.00;63.40
37456;DHT22;23316;50.718;7.328;2022-10-16T07:08:42;18.00;63.30
37456;DHT22;23316;50.718;7.328;2022-10-16T07:11:11;18.00;63.30
37456;DHT22;23316;50.718;7.328;2022-10-16T07:13:40;18.00;63.30
37456;DHT22;23316;50.718;7.328;2022-10-16T07:16:09;18.00;63.30
37456;DHT22;23316;50.718;7.328;2022-10-16T07:18:37;18.00;63.40
37456;DHT22;23316;50.718;7.328;2022-10-16T07:21:09;18.00;63.40
37456;DHT22;23316;50.718;7.328;2022-10-16T07:23:37;18.10;63.50
37456;DHT22;23316;50.718;7.328;2022-10-16T07:26:04;18.10;64.20
37456;DHT22;23316;50.718;7.328;2022-10-16T07:28:32;18.10;64.30
37456;DHT22;23316;50.718;7.328;2022-10-16T07:31:01;18.10;63.50
37456;DHT22;23316;50.718;7.328;2022-10-16T07:33:28;18.10;63.50
37456;DHT22;23316;50.718;7.328;2022-10-16T07:35:56;18.10;63.60
37456;DHT22;23316;50.718;7.328;2022-10-16T07:38:25;18.10;63.70
37456;DHT22;23316;50.718;7.328;2022-10-16T07:40:56;18.20;63.80
37456;DHT22;23316;50.718;7.328;2022-10-16T07:43:25;18.20;63.90
37456;DHT22;23316;50.718;7.328;2022-10-16T07:45:52;18.20;63.90
37456;DHT22;23316;50.718;7.328;2022-10-16T07:48:21;18.20;63.90
37456;DHT22;23316;50.718;7.328;2022-10-16T07:50:49;18.20;63.90
37456;DHT22;23316;50.718;7.328;2022-10-16T07:53:16;18.20;63.80
37456;DHT22;23316;50.718;7.328;2022-10-16T07:55:45;18.30;63.80
37456;DHT22;23316;50.718;7.328;2022-10-16T07:58:12;18.30;63.80
37456;DHT22;23316;50.718;7.328;2022-10-16T08:00:39;18.30;63.80
37456;DHT22;23316;50.718;7.328;2022-10-16T08:03:08;18.30;63.90
37456;DHT22;23316;50.718;7.328;2022-10-16T08:05:35;18.30;64.00
37456;DHT22;23316;50.718;7.328;2022-10-16T08:08:02;18.40;64.00
37456;DHT22;23316;50.718;7.328;2022-10-16T08:10:30;18.40;64.70
37456;DHT22;23316;50.718;7.328;2022-10-16T08:12:59;18.40;64.10
37456;DHT22;23316;50.718;7.328;2022-10-16T08:15:26;18.40;64.00
37456;DHT22;23316;50.718;7.328;2022-10-16T08:17:57;18.50;64.00
37456;DHT22;23316;50.718;7.328;2022-10-16T08:20:25;18.40;64.00
37456;DHT22;23316;50.718;7.328;2022-10-16T08:22:53;18.50;64.00
37456;DHT22;23316;50.718;7.328;2022-10-16T08:25:21;18.50;64.10
37456;DHT22;23316;50.718;7.328;2022-10-16T08:27:49;18.50;64.10
37456;DHT22;23316;50.718;7.328;2022-10-16T08:30:18;18.50;64.10
37456;DHT22;23316;50.718;7.328;2022-10-16T08:32:46;18.60;64.10
37456;DHT22;23316;50.718;7.328;2022-10-16T08:35:14;18.60;64.00
37456;DHT22;23316;50.718;7.328;2022-10-16T08:37:41;18.60;63.90
37456;DHT22;23316;50.718;7.328;2022-10-16T08:40:17;18.60;63.60
37456;DHT22;23316;50.718;7.328;2022-10-16T08:43:00;18.70;63.40
37456;DHT22;23316;50.718;7.328;2022-10-16T08:45:39;18.60;63.00
37456;DHT22;23316;50.718;7.328;2022-10-16T08:48:18;18.70;62.70
37456;DHT22;23316;50.718;7.328;2022-10-16T08:50:48;18.70;62.30
37456;DHT22;23316;50.718;7.328;2022-10-16T08:53:20;18.70;62.20
37456;DHT22;23316;50.718;7.328;2022-10-16T08:55:51;18.70;62.10
37456;DHT22;23316;50.718;7.328;2022-10-16T08:58:20;18.70;62.10
37456;DHT22;23316;50.718;7.328;2022-10-16T09:00:53;18.80;62.00
37456;DHT22;23316;50.718;7.328;2022-10-16T09:03:37;18.80;61.80
37456;DHT22;23316;50.718;7.328;2022-10-16T09:06:30;18.80;61.60
37456;DHT22;23316;50.718;7.328;2022-10-16T09:09:12;18.80;61.30
37456;DHT22;23316;50.718;7.328;2022-10-16T09:11:48;18.90;61.30
37456;DHT22;23316;50.718;7.328;2022-10-16T09:14:29;18.90;60.90
37456;DHT22;23316;50.718;7.328;2022-10-16T09:17:18;18.90;60.70
37456;DHT22;23316;50.718;7.328;2022-10-16T09:19:53;18.90;60.60
37456;DHT22;23316;50.718;7.328;2022-10-16T09:22:27;19.00;60.60
37456;DHT22;23316;50.718;7.328;2022-10-16T09:24:55;19.00;60.70
37456;DHT22;23316;50.718;7.328;2022-10-16T09:27:26;19.10;60.80
37456;DHT22;23316;50.718;7.328;2022-10-16T09:29:53;19.10;60.80
37456;DHT22;23316;50.718;7.328;2022-10-16T09:32:22;19.10;60.40
37456;DHT22;23316;50.718;7.328;2022-10-16T09:34:52;19.10;60.00
37456;DHT22;23316;50.718;7.328;2022-10-16T09:37:23;19.20;60.00
37456;DHT22;23316;50.718;7.328;2022-10-16T09:39:53;19.20;60.00
37456;DHT22;23316;50.718;7.328;2022-10-16T09:42:23;19.20;59.80
37456;DHT22;23316;50.718;7.328;2022-10-16T09:44:54;19.20;59.60
37456;DHT22;23316;50.718;7.328;2022-10-16T09:47:25;19.30;59.60
37456;DHT22;23316;50.718;7.328;2022-10-16T09:49:54;19.30;59.50
37456;DHT22;23316;50.718;7.328;2022-10-16T09:52:23;19.30;59.50
37456;DHT22;23316;50.718;7.328;2022-10-16T09:54:51;19.30;59.10
37456;DHT22;23316;50.718;7.328;2022-10-16T09:57:20;19.40;59.10
37456;DHT22;23316;50.718;7.328;2022-10-16T09:59:49;19.40;59.10
37456;DHT22;23316;50.718;7.328;2022-10-16T10:02:18;19.40;59.10
37456;DHT22;23316;50.718;7.328;2022-10-16T10:04:50;19.40;59.10
37456;DHT22;23316;50.718;7.328;2022-10-16T10:07:24;19.40;58.70
37456;DHT22;23316;50.718;7.328;2022-10-16T10:09:52;19.50;58.60
37456;DHT22;23316;50.718;7.328;2022-10-16T10:12:21;19.50;58.60
37456;DHT22;23316;50.718;7.328;2022-10-16T10:14:51;19.50;58.40
37456;DHT22;23316;50.718;7.328;2022-10-16T10:17:20;19.50;58.20
37456;DHT22;23316;50.718;7.328;2022-10-16T10:19:54;19.50;58.10
37456;DHT22;23316;50.718;7.328;2022-10-16T10:22:25;19.50;57.90
37456;DHT22;23316;50.718;7.328;2022-10-16T10:27:44;19.60;57.30
37456;DHT22;23316;50.718;7.328;2022-10-16T10:30:19;19.70;57.20
37456;DHT22;23316;50.718;7.328;2022-10-16T10:33:01;19.60;57.00
37456;DHT22;23316;50.718;7.328;2022-10-16T10:35:40;19.70;57.00
37456;DHT22;23316;50.718;7.328;2022-10-16T10:38:20;19.70;56.90
37456;DHT22;23316;50.718;7.328;2022-10-16T10:40:59;19.70;56.90
37456;DHT22;23316;50.718;7.328;2022-10-16T10:43:39;19.70;56.90
37456;DHT22;23316;50.718;7.328;2022-10-16T10:46:14;19.70;56.80
37456;DHT22;23316;50.718;7.328;2022-10-16T10:49:01;19.80;56.90
37456;DHT22;23316;50.718;7.328;2022-10-16T10:51:40;19.80;57.00
37456;DHT22;23316;50.718;7.328;2022-10-16T10:54:17;19.90;56.70
37456;DHT22;23316;50.718;7.328;2022-10-16T10:56:51;19.90;56.60
37456;DHT22;23316;50.718;7.328;2022-10-16T10:59:46;20.00;56.50
37456;DHT22;23316;50.718;7.328;2022-10-16T11:02:21;20.00;56.30
37456;DHT22;23316;50.718;7.328;2022-10-16T11:05:16;20.10;56.30
37456;DHT22;23316;50.718;7.328;2022-10-16T11:07:54;20.10;56.10
37456;DHT22;23316;50.718;7.328;2022-10-16T11:10:24;20.10;56.10
37456;DHT22;23316;50.718;7.328;2022-10-16T11:12:56;20.20;56.10
37456;DHT22;23316;50.718;7.328;2022-10-16T11:15:29;20.20;56.30
37456;DHT22;23316;50.718;7.328;2022-10-16T11:18:00;20.20;55.50
37456;DHT22;23316;50.718;7.328;2022-10-16T11:20:32;20.30;55.50
37456;DHT22;23316;50.718;7.328;2022-10-16T11:23:07;20.30;55.40
37456;DHT22;23316;50.718;7.328;2022-10-16T11:25:36;20.30;55.20
37456;DHT22;23316;50.718;7.328;2022-10-16T11:28:08;20.30;55.10
37456;DHT22;23316;50.718;7.328;2022-10-16T11:30:43;20.40;54.90
37456;DHT22;23316;50.718;7.328;2022-10-16T11:33:24;20.40;55.50
37456;DHT22;23316;50.718;7.328;2022-10-16T11:35:55;20.40;55.30
37456;DHT22;23316;50.718;7.328;2022-10-16T11:38:30;20.50;55.40
37456;DHT22;23316;50.718;7.328;2022-10-16T11:41:03;20.50;55.10
37456;DHT22;23316;50.718;7.328;2022-10-16T11:43:38;20.50;54.80
37456;DHT22;23316;50.718;7.328;2022-10-16T11:46:10;20.60;54.70
37456;DHT22;23316;50.718;7.328;2022-10-16T11:48:41;20.60;54.80
37456;DHT22;23316;50.718;7.328;2022-10-16T11:51:16;20.60;54.60
37456;DHT22;23316;50.718;7.328;2022-10-16T11:53:53;20.70;54.70
37456;DHT22;23316;50.718;7.328;2022-10-16T11:56:24;20.70;54.40
37456;DHT22;23316;50.718;7.328;2022-10-16T11:58:56;20.70;54.60
37456;DHT22;23316;50.718;7.328;2022-10-16T12:01:28;20.80;54.70
37456;DHT22;23316;50.718;7.328;2022-10-16T12:04:14;20.80;54.40
37456;DHT22;23316;50.718;7.328;2022-10-16T12:06:49;20.90;54.40
37456;DHT22;23316;50.718;7.328;2022-10-16T12:09:22;20.80;54.50
37456;DHT22;23316;50.718;7.328;2022-10-16T12:11:51;20.90;54.70
37456;DHT22;23316;50.718;7.328;2022-10-16T12:14:22;20.90;54.70
37456;DHT22;23316;50.718;7.328;2022-10-16T12:17:02;20.90;54.50
37456;DHT22;23316;50.718;7.328;2022-10-16T12:19:32;21.00;54.60
37456;DHT22;23316;50.718;7.328;2022-10-16T12:22:01;21.00;54.80
37456;DHT22;23316;50.718;7.328;2022-10-16T12:24:35;21.00;54.80
37456;DHT22;23316;50.718;7.328;2022-10-16T12:27:05;21.00;54.80
37456;DHT22;23316;50.718;7.328;2022-10-16T12:29:36;21.10;54.80
37456;DHT22;23316;50.718;7.328;2022-10-16T12:32:05;21.10;54.60
37456;DHT22;23316;50.718;7.328;2022-10-16T12:34:38;21.10;54.60
37456;DHT22;23316;50.718;7.328;2022-10-16T12:37:12;21.20;54.60
37456;DHT22;23316;50.718;7.328;2022-10-16T12:39:41;21.20;54.60
37456;DHT22;23316;50.718;7.328;2022-10-16T12:42:33;21.20;54.60
37456;DHT22;23316;50.718;7.328;2022-10-16T12:45:01;21.20;54.20
37456;DHT22;23316;50.718;7.328;2022-10-16T12:47:48;21.20;54.50
37456;DHT22;23316;50.718;7.328;2022-10-16T12:50:30;21.30;54.20
37456;DHT22;23316;50.718;7.328;2022-10-16T12:52:58;21.30;54.20
37456;DHT22;23316;50.718;7.328;2022-10-16T12:55:27;21.30;54.30
37456;DHT22;23316;50.718;7.328;2022-10-16T12:58:19;21.30;54.20
37456;DHT22;23316;50.718;7.328;2022-10-16T13:00:55;21.30;54.60
37456;DHT22;23316;50.718;7.328;2022-10-16T13:03:43;21.30;54.20
37456;DHT22;23316;50.718;7.328;2022-10-16T13:06:22;21.30;54.20
37456;DHT22;23316;50.718;7.328;2022-10-16T13:09:13;21.30;54.20
37456;DHT22;23316;50.718;7.328;2022-10-16T13:11:56;21.40;54.30
37456;DHT22;23316;50.718;7.328;2022-10-16T13:14:51;21.30;54.30
37456;DHT22;23316;50.718;7.328;2022-10-16T13:17:27;21.30;54.50
37456;DHT22;23316;50.718;7.328;2022-10-16T13:20:03;21.40;54.50
37456;DHT22;23316;50.718;7.328;2022-10-16T13:22:37;21.40;54.50
37456;DHT22;23316;50.718;7.328;2022-10-16T13:25:18;21.40;54.60
37456;DHT22;23316;50.718;7.328;2022-10-16T13:27:52;21.40;54.40
37456;DHT22;23316;50.718;7.328;2022-10-16T13:30:23;21.40;54.60
37456;DHT22;23316;50.718;7.328;2022-10-16T13:32:58;21.50;54.70
37456;DHT22;23316;50.718;7.328;2022-10-16T13:35:27;21.50;54.60
37456;DHT22;23316;50.718;7.328;2022-10-16T13:38:11;21.50;54.70
37456;DHT22;23316;50.718;7.328;2022-10-16T13:40:52;21.50;54.70
37456;DHT22;23316;50.718;7.328;2022-10-16T13:43:24;21.50;54.70
37456;DHT22;23316;50.718;7.328;2022-10-16T13:48:21;21.50;55.10
37456;DHT22;23316;50.718;7.328;2022-10-16T13:50:59;21.50;55.00
37456;DHT22;23316;50.718;7.328;2022-10-16T13:53:26;21.50;54.80
37456;DHT22;23316;50.718;7.328;2022-10-16T13:55:53;21.50;54.80
37456;DHT22;23316;50.718;7.328;2022-10-16T13:58:22;21.50;54.80
37456;DHT22;23316;50.718;7.328;2022-10-16T14:00:54;21.50;54.70
37456;DHT22;23316;50.718;7.328;2022-10-16T14:03:22;21.50;54.90
37456;DHT22;23316;50.718;7.328;2022-10-16T14:05:52;21.50;55.00
37456;DHT22;23316;50.718;7.328;2022-10-16T14:08:19;21.50;55.10
37456;DHT22;23316;50.718;7.328;2022-10-16T14:10:48;21.50;55.00
37456;DHT22;23316;50.718;7.328;2022-10-16T14:13:20;21.50;55.00
37456;DHT22;23316;50.718;7.328;2022-10-16T14:15:51;21.50;54.90
37456;DHT22;23316;50.718;7.328;2022-10-16T14:18:22;21.50;54.90
37456;DHT22;23316;50.718;7.328;2022-10-16T14:20:50;21.50;54.90
37456;DHT22;23316;50.718;7.328;2022-10-16T14:23:22;21.50;54.80
37456;DHT22;23316;50.718;7.328;2022-10-16T14:25:52;21.50;55.00
37456;DHT22;23316;50.718;7.328;2022-10-16T14:28:21;21.50;55.00
37456;DHT22;23316;50.718;7.328;2022-10-16T14:30:52;21.50;55.20
37456;DHT22;23316;50.718;7.328;2022-10-16T14:33:22;21.40;55.10
37456;DHT22;23316;50.718;7.328;2022-10-16T14:36:02;21.40;55.30
37456;DHT22;23316;50.718;7.328;2022-10-16T14:38:30;21.40;55.30
37456;DHT22;23316;50.718;7.328;2022-10-16T14:40:59;21.50;55.40
37456;DHT22;23316;50.718;7.328;2022-10-16T14:43:32;21.40;55.40
37456;DHT22;23316;50.718;7.328;2022-10-16T14:46:11;21.50;55.40
37456;DHT22;23316;50.718;7.328;2022-10-16T14:48:41;21.40;55.30
37456;DHT22;23316;50.718;7.328;2022-10-16T14:51:14;21.40;55.40
37456;DHT22;23316;50.718;7.328;2022-10-16T14:56:55;21.40;55.50
37456;DHT22;23316;50.718;7.328;2022-10-16T14:59:27;21.50;55.60
37456;DHT22;23316;50.718;7.328;2022-10-16T15:01:57;21.40;55.60
37456;DHT22;23316;50.718;7.328;2022-10-16T15:04:24;21.40;55.60
37456;DHT22;23316;50.718;7.328;2022-10-16T15:06:51;21.40;55.70
37456;DHT22;23316;50.718;7.328;2022-10-16T15:09:18;21.40;55.70
37456;DHT22;23316;50.718;7.328;2022-10-16T15:11:46;21.40;55.70
37456;DHT22;23316;50.718;7.328;2022-10-16T15:14:13;21.40;55.80
37456;DHT22;23316;50.718;7.328;2022-10-16T15:16:40;21.40;56.00
37456;DHT22;23316;50.718;7.328;2022-10-16T15:19:09;21.40;56.00
37456;DHT22;23316;50.718;7.328;2022-10-16T15:21:36;21.40;56.00
37456;DHT22;23316;50.718;7.328;2022-10-16T15:24:09;21.30;56.00
37456;DHT22;23316;50.718;7.328;2022-10-16T15:26:40;21.30;56.20
37456;DHT22;23316;50.718;7.328;2022-10-16T15:29:07;21.40;56.20
37456;DHT22;23316;50.718;7.328;2022-10-16T15:31:34;21.40;56.00
37456;DHT22;23316;50.718;7.328;2022-10-16T15:34:03;21.40;56.10
37456;DHT22;23316;50.718;7.328;2022-10-16T15:36:34;21.30;56.20
37456;DHT22;23316;50.718;7.328;2022-10-16T15:39:03;21.30;56.30
37456;DHT22;23316;50.718;7.328;2022-10-16T15:41:30;21.30;56.40
37456;DHT22;23316;50.718;7.328;2022-10-16T15:43:57;21.30;56.50
37456;DHT22;23316;50.718;7.328;2022-10-16T15:46:25;21.30;56.50
37456;DHT22;23316;50.718;7.328;2022-10-16T15:48:56;21.20;56.40
37456;DHT22;23316;50.718;7.328;2022-10-16T15:51:24;21.20;56.40
37456;DHT22;23316;50.718;7.328;2022-10-16T15:53:55;21.20;56.40
37456;DHT22;23316;50.718;7.328;2022-10-16T15:56:23;21.20;56.50
37456;DHT22;23316;50.718;7.328;2022-10-16T15:58:51;21.10;56.50
37456;DHT22;23316;50.718;7.328;2022-10-16T16:01:19;21.10;56.60
37456;DHT22;23316;50.718;7.328;2022-10-16T16:03:47;21.10;56.70